• Join FlightAware (Why Join?)
  • Login
  • US Flag 
05:00AM EST


 

Airport Tracker/Info


-or-


 

Live Flight TrackerFlight Track Log ✈ N960AC ✈ 12-Dec-2013 ✈ KORL - KAPF

Flight Track Log - Related Links

Times and Time Zones

All times are in EST time to prevent confusion due to time zone crossing. See the N960AC flight status page for this flight to view local times or setup timezone preferences in your user account.

Time Position Orientation Groundspeed Altitude Reporting Facility
EST Latitude Longitude Course Direction KTS MPH feet Rate Location/Type
09:04PM 28.5500 -81.3333 360° North 76 87 700  Level Orlando TRACON
09:05PM 28.5500 -81.3333 270° West 73 84 1,300 660 Climbing Orlando TRACON
09:06PM 28.5500 -81.3667 270° West 92 106 2,000 360 Climbing Orlando TRACON
09:07PM 28.5500 -81.3833 270° West 116 133 2,100 120 Climbing Orlando TRACON
09:08PM 28.5500 -81.4167 270° West 109 125 2,300 360 Climbing Orlando TRACON
09:09PM 28.5333 -81.4500 240° Southwest 111 128 2,900 540 Climbing Orlando TRACON
09:10PM 28.5000 -81.4667 204° Southwest 116 133 3,400 240 Climbing Orlando TRACON
09:11PM 28.4667 -81.4833 204° Southwest 126 145 3,400 -60 Level Orlando TRACON
09:12PM 28.4500 -81.5000 221° Southwest 120 138 3,300  Descending Orlando TRACON
09:13PM 28.4167 -81.5167 204° Southwest 122 140 3,400  Climbing Orlando TRACON
09:14PM 28.3833 -81.5500 221° Southwest 130 150 3,400 -120 Level Orlando TRACON
09:15PM 28.3500 -81.5667 204° Southwest 136 157 3,200 -60 Descending Orlando TRACON
09:16PM 28.3167 -81.5667 180° South 127 146 3,300  Climbing Orlando TRACON
09:17PM 28.2833 -81.5667 180° South 122 140 3,300  Level Orlando TRACON
09:18PM 28.2500 -81.5667 180° South 113 130 3,400  Climbing Orlando TRACON
09:20PM 28.1844 -81.5439 163° South 125 144 3,400 -60 Level Miami Center
09:21PM 28.1511 -81.5425 178° South 125 144 3,300 -60 Descending Miami Center
09:22PM 28.1156 -81.5481 188° South 125 144 3,300 -60 Level Miami Center
09:23PM 28.0800 -81.5514 185° South 125 144 3,200 -60 Descending Miami Center
09:24PM 28.0464 -81.5617 195° South 125 144 3,200  Level Miami Center
09:25PM 28.0106 -81.5672 188° South 125 144 3,200  Level Miami Center
09:26PM 27.9772 -81.5706 185° South 125 144 3,200  Level Miami Center
09:27PM 27.9417 -81.5667 174° South 125 144 3,200  Level Miami Center
09:28PM 27.9106 -81.5631 174° South 120 138 3,200  Level Miami Center
09:29PM 27.8797 -81.5522 163° South 120 138 3,200  Level Miami Center
09:30PM 27.8442 -81.5556 185° South 120 138 3,200  Level Miami Center
09:31PM 27.8106 -81.5636 192° South 120 138 3,300  Climbing Miami Center
09:32PM 27.7786 -81.5833 209° Southwest 128 147 3,200 -60 Descending Miami Center
09:33PM 27.7447 -81.5961 198° South 134 154 3,200  Level Miami Center
09:34PM 27.7111 -81.6017 188° South 128 147 3,300  Climbing Miami Center
09:35PM 27.6775 -81.6072 188° South 128 147 3,300  Level Miami Center
09:36PM 27.6417 -81.6175 194° South 128 147 3,300  Level Miami Center
09:37PM 27.6081 -81.6231 188° South 128 147 3,300  Level Miami Center
09:38PM 27.5747 -81.6194 175° South 123 142 3,300 -60 Level Miami Center
09:39PM 27.5461 -81.6089 162° South 123 142 3,200 -60 Descending Miami Center
09:40PM 27.5214 -81.5914 148° Southeast 117 135 3,200  Level Miami Center
09:41PM 27.4969 -81.5742 148° Southeast 112 129 3,200  Level Miami Center
09:42PM 27.4656 -81.5775 185° South 112 129 3,200  Level Miami Center
09:43PM 27.4356 -81.6044 219° Southwest 112 129 3,200  Level Miami Center
09:44PM 27.4075 -81.6289 218° Southwest 124 143 3,300  Climbing Miami Center
09:45PM 27.3739 -81.6414 198° South 131 151 3,200 -60 Descending Miami Center
09:46PM 27.3400 -81.6542 199° South 131 151 3,200  Level Miami Center
09:47PM 27.3081 -81.6692 203° Southwest 131 151 3,200  Level Miami Center
09:48PM 27.2767 -81.6703 182° South 131 151 3,200  Level Miami Center
09:49PM 27.2436 -81.6664 174° South 125 144 3,200  Level Miami Center
09:50PM 27.2211 -81.6492 146° Southeast 111 128 3,200  Level Miami Center
09:51PM 27.2008 -81.6319 143° Southeast 104 120 3,200  Level Miami Center
09:52PM 27.1739 -81.6264 170° South 99 114 3,200  Level Miami Center
09:53PM 27.1403 -81.6342 192° South 104 120 3,200 -60 Level Miami Center
09:54PM 27.1064 -81.6492 202° Southwest 119 137 3,100 -60 Descending Miami Center
09:55PM 27.0747 -81.6617 199° South 125 144 3,100  Level Miami Center
09:56PM 27.0467 -81.6839 215° Southwest 131 151 3,200  Climbing Miami Center
09:57PM 27.0192 -81.6992 206° Southwest 131 151 3,200  Level Miami Center
09:58PM 26.9814 -81.7044 187° South 126 145 3,300 60 Climbing Miami Center
10:00PM 26.9199 -81.7084 183° South  Level FlightAware Approximate
10:07PM 26.6992 -81.7225 183° South  Level FlightAware Approximate
10:08PM 26.6677 -81.7245 183° South  Level FlightAware Approximate
10:09PM 26.6362 -81.7265 183° South  Level FlightAware Approximate
10:10PM 26.6046 -81.7285 183° South  Level FlightAware Approximate
10:11PM 26.5731 -81.7305 183° South  Level FlightAware Approximate
10:12PM 26.5416 -81.7326 183° South  Level FlightAware Approximate
10:13PM 26.5100 -81.7346 183° South  Level FlightAware Approximate
10:14PM 26.4785 -81.7366 183° South  Level FlightAware Approximate
10:15PM 26.4470 -81.7386 183° South  Level FlightAware Approximate
10:16PM 26.4155 -81.7406 183° South  Level FlightAware Approximate
10:17PM 26.3839 -81.7426 183° South  Level FlightAware Approximate
10:18PM 26.3524 -81.7446 183° South  Level FlightAware Approximate
10:19PM 26.3209 -81.7466 183° South  Level FlightAware Approximate
10:20PM 26.2893 -81.7486 183° South  Level FlightAware Approximate
10:21PM 26.2586 -81.7540 204° Southwest  Level FlightAware Approximate
10:22PM 26.2295 -81.7667 180° South  Level FlightAware Approximate
10:23PM 26.1979 -81.7667 180° South  Level FlightAware Approximate
10:24PM 26.1663 -81.7667 180° South  Level FlightAware Approximate
10:25PM 26.1500 -81.7667 180° South  Level FlightAware Approximate
10:26PM 26.1524 -81.7756 180° South  Level Estimated
10:27PM 26.1524 -81.7756 180° South  Level Estimated
10:28PM 26.1524 -81.7756 180° South  Level Estimated